sensor_id;sensor_type;location;lat;lon;timestamp;P1;durP1;ratioP1;P2;durP2;ratioP2
11422;SDS011;5768;51.476;7.210;2022-08-01T00:00:27;15.52;;;13.52;;
11422;SDS011;5768;51.476;7.210;2022-08-01T00:03:30;15.70;;;14.10;;
11422;SDS011;5768;51.476;7.210;2022-08-01T00:06:32;16.05;;;13.80;;
11422;SDS011;5768;51.476;7.210;2022-08-01T00:09:34;17.15;;;15.40;;
11422;SDS011;5768;51.476;7.210;2022-08-01T00:12:38;16.52;;;14.50;;
11422;SDS011;5768;51.476;7.210;2022-08-01T00:15:42;17.95;;;16.15;;
11422;SDS011;5768;51.476;7.210;2022-08-01T00:18:44;19.05;;;17.08;;
11422;SDS011;5768;51.476;7.210;2022-08-01T00:21:47;16.55;;;14.85;;
11422;SDS011;5768;51.476;7.210;2022-08-01T00:24:49;19.13;;;17.42;;
11422;SDS011;5768;51.476;7.210;2022-08-01T00:27:53;20.73;;;18.73;;
11422;SDS011;5768;51.476;7.210;2022-08-01T00:30:55;21.55;;;19.25;;
11422;SDS011;5768;51.476;7.210;2022-08-01T00:33:58;30.73;;;27.45;;
11422;SDS011;5768;51.476;7.210;2022-08-01T00:37:00;30.92;;;27.70;;
11422;SDS011;5768;51.476;7.210;2022-08-01T00:40:03;29.50;;;26.58;;
11422;SDS011;5768;51.476;7.210;2022-08-01T00:43:08;31.33;;;28.23;;
11422;SDS011;5768;51.476;7.210;2022-08-01T00:46:11;26.23;;;23.73;;
11422;SDS011;5768;51.476;7.210;2022-08-01T00:49:13;27.50;;;24.50;;
11422;SDS011;5768;51.476;7.210;2022-08-01T00:52:16;27.80;;;24.90;;
11422;SDS011;5768;51.476;7.210;2022-08-01T00:55:19;26.92;;;24.40;;
11422;SDS011;5768;51.476;7.210;2022-08-01T00:58:23;28.35;;;25.60;;
11422;SDS011;5768;51.476;7.210;2022-08-01T01:01:28;25.80;;;23.30;;
11422;SDS011;5768;51.476;7.210;2022-08-01T01:04:31;25.77;;;22.90;;
11422;SDS011;5768;51.476;7.210;2022-08-01T01:07:34;26.45;;;23.95;;
11422;SDS011;5768;51.476;7.210;2022-08-01T01:10:46;25.60;;;23.20;;
11422;SDS011;5768;51.476;7.210;2022-08-01T01:13:57;22.95;;;20.65;;
11422;SDS011;5768;51.476;7.210;2022-08-01T01:17:03;24.15;;;21.85;;
11422;SDS011;5768;51.476;7.210;2022-08-01T01:20:10;26.70;;;24.23;;
11422;SDS011;5768;51.476;7.210;2022-08-01T01:23:21;26.05;;;23.58;;
11422;SDS011;5768;51.476;7.210;2022-08-01T01:26:36;28.30;;;25.27;;
11422;SDS011;5768;51.476;7.210;2022-08-01T01:29:45;25.98;;;23.48;;
11422;SDS011;5768;51.476;7.210;2022-08-01T01:32:50;27.15;;;24.27;;
11422;SDS011;5768;51.476;7.210;2022-08-01T01:35:56;25.92;;;23.42;;
11422;SDS011;5768;51.476;7.210;2022-08-01T01:39:02;27.13;;;24.52;;
11422;SDS011;5768;51.476;7.210;2022-08-01T01:42:04;25.63;;;23.13;;
11422;SDS011;5768;51.476;7.210;2022-08-01T01:45:09;27.98;;;22.48;;
11422;SDS011;5768;51.476;7.210;2022-08-01T01:48:13;23.90;;;21.50;;
11422;SDS011;5768;51.476;7.210;2022-08-01T01:51:18;23.38;;;21.13;;
11422;SDS011;5768;51.476;7.210;2022-08-01T01:54:28;24.38;;;21.77;;
11422;SDS011;5768;51.476;7.210;2022-08-01T01:57:35;24.65;;;22.08;;
11422;SDS011;5768;51.476;7.210;2022-08-01T02:00:44;24.45;;;21.20;;
11422;SDS011;5768;51.476;7.210;2022-08-01T02:03:48;24.85;;;22.15;;
11422;SDS011;5768;51.476;7.210;2022-08-01T02:06:53;23.58;;;21.20;;
11422;SDS011;5768;51.476;7.210;2022-08-01T02:09:57;23.02;;;20.20;;
11422;SDS011;5768;51.476;7.210;2022-08-01T02:13:02;24.73;;;21.45;;
11422;SDS011;5768;51.476;7.210;2022-08-01T02:16:08;24.48;;;21.88;;
11422;SDS011;5768;51.476;7.210;2022-08-01T02:19:12;23.83;;;21.52;;
11422;SDS011;5768;51.476;7.210;2022-08-01T02:22:16;26.20;;;23.20;;
11422;SDS011;5768;51.476;7.210;2022-08-01T02:25:22;26.77;;;22.83;;
11422;SDS011;5768;51.476;7.210;2022-08-01T02:28:28;26.88;;;24.15;;
11422;SDS011;5768;51.476;7.210;2022-08-01T02:31:36;27.10;;;23.83;;
11422;SDS011;5768;51.476;7.210;2022-08-01T02:34:45;26.65;;;23.33;;
11422;SDS011;5768;51.476;7.210;2022-08-01T02:37:49;29.73;;;24.65;;
11422;SDS011;5768;51.476;7.210;2022-08-01T02:40:52;27.70;;;24.05;;
11422;SDS011;5768;51.476;7.210;2022-08-01T02:43:59;27.58;;;23.33;;
11422;SDS011;5768;51.476;7.210;2022-08-01T02:47:07;27.17;;;23.73;;
11422;SDS011;5768;51.476;7.210;2022-08-01T02:50:10;26.85;;;23.95;;
11422;SDS011;5768;51.476;7.210;2022-08-01T02:53:18;28.15;;;24.05;;
11422;SDS011;5768;51.476;7.210;2022-08-01T02:56:22;26.98;;;22.38;;
11422;SDS011;5768;51.476;7.210;2022-08-01T02:59:35;27.67;;;24.70;;
11422;SDS011;5768;51.476;7.210;2022-08-01T03:02:41;26.40;;;23.15;;
11422;SDS011;5768;51.476;7.210;2022-08-01T03:05:45;27.02;;;24.08;;
11422;SDS011;5768;51.476;7.210;2022-08-01T03:08:49;28.50;;;24.13;;
11422;SDS011;5768;51.476;7.210;2022-08-01T03:11:52;28.52;;;23.63;;
11422;SDS011;5768;51.476;7.210;2022-08-01T03:14:57;29.80;;;23.38;;
11422;SDS011;5768;51.476;7.210;2022-08-01T03:18:02;29.25;;;24.27;;
11422;SDS011;5768;51.476;7.210;2022-08-01T03:21:07;29.38;;;23.30;;
11422;SDS011;5768;51.476;7.210;2022-08-01T03:24:11;32.55;;;25.60;;
11422;SDS011;5768;51.476;7.210;2022-08-01T03:27:16;28.30;;;25.30;;
11422;SDS011;5768;51.476;7.210;2022-08-01T03:30:21;29.13;;;25.15;;
11422;SDS011;5768;51.476;7.210;2022-08-01T03:33:27;28.48;;;25.52;;
11422;SDS011;5768;51.476;7.210;2022-08-01T03:36:31;26.30;;;23.50;;
11422;SDS011;5768;51.476;7.210;2022-08-01T03:39:39;26.38;;;22.23;;
11422;SDS011;5768;51.476;7.210;2022-08-01T03:42:47;29.00;;;24.45;;
11422;SDS011;5768;51.476;7.210;2022-08-01T03:45:53;29.85;;;23.58;;
11422;SDS011;5768;51.476;7.210;2022-08-01T03:49:02;21.45;;;18.88;;
11422;SDS011;5768;51.476;7.210;2022-08-01T03:52:09;26.67;;;22.05;;
11422;SDS011;5768;51.476;7.210;2022-08-01T03:55:12;25.25;;;20.60;;
11422;SDS011;5768;51.476;7.210;2022-08-01T03:58:17;25.33;;;21.27;;
11422;SDS011;5768;51.476;7.210;2022-08-01T04:01:20;26.42;;;19.70;;
11422;SDS011;5768;51.476;7.210;2022-08-01T04:04:24;19.95;;;17.88;;
11422;SDS011;5768;51.476;7.210;2022-08-01T04:07:28;25.23;;;20.25;;
11422;SDS011;5768;51.476;7.210;2022-08-01T04:10:32;22.35;;;19.33;;
11422;SDS011;5768;51.476;7.210;2022-08-01T04:13:35;20.95;;;18.58;;
11422;SDS011;5768;51.476;7.210;2022-08-01T04:16:37;21.42;;;18.48;;
11422;SDS011;5768;51.476;7.210;2022-08-01T04:19:41;25.27;;;18.80;;
11422;SDS011;5768;51.476;7.210;2022-08-01T04:22:43;18.23;;;15.60;;
11422;SDS011;5768;51.476;7.210;2022-08-01T04:25:46;21.75;;;16.25;;
11422;SDS011;5768;51.476;7.210;2022-08-01T04:28:51;19.67;;;15.55;;
11422;SDS011;5768;51.476;7.210;2022-08-01T04:31:55;17.65;;;15.50;;
11422;SDS011;5768;51.476;7.210;2022-08-01T04:35:02;17.98;;;15.27;;
11422;SDS011;5768;51.476;7.210;2022-08-01T04:38:08;16.63;;;13.70;;
11422;SDS011;5768;51.476;7.210;2022-08-01T04:41:14;24.13;;;15.68;;
11422;SDS011;5768;51.476;7.210;2022-08-01T04:44:17;16.90;;;15.13;;
11422;SDS011;5768;51.476;7.210;2022-08-01T04:47:20;17.23;;;14.48;;
11422;SDS011;5768;51.476;7.210;2022-08-01T04:50:25;17.27;;;13.48;;
11422;SDS011;5768;51.476;7.210;2022-08-01T04:53:28;19.95;;;14.65;;
11422;SDS011;5768;51.476;7.210;2022-08-01T04:56:32;19.67;;;14.15;;
11422;SDS011;5768;51.476;7.210;2022-08-01T04:59:36;17.45;;;14.35;;
11422;SDS011;5768;51.476;7.210;2022-08-01T05:02:42;17.48;;;13.98;;
11422;SDS011;5768;51.476;7.210;2022-08-01T05:05:48;19.23;;;16.05;;
11422;SDS011;5768;51.476;7.210;2022-08-01T05:08:50;17.88;;;15.65;;
11422;SDS011;5768;51.476;7.210;2022-08-01T05:11:53;20.30;;;16.20;;
11422;SDS011;5768;51.476;7.210;2022-08-01T05:14:58;19.35;;;16.50;;
11422;SDS011;5768;51.476;7.210;2022-08-01T05:18:01;18.40;;;15.85;;
11422;SDS011;5768;51.476;7.210;2022-08-01T05:21:05;17.15;;;15.32;;
11422;SDS011;5768;51.476;7.210;2022-08-01T05:24:08;18.30;;;16.30;;
11422;SDS011;5768;51.476;7.210;2022-08-01T05:27:10;17.98;;;15.98;;
11422;SDS011;5768;51.476;7.210;2022-08-01T05:30:13;17.30;;;15.38;;
11422;SDS011;5768;51.476;7.210;2022-08-01T05:33:16;17.08;;;15.38;;
11422;SDS011;5768;51.476;7.210;2022-08-01T05:36:22;17.05;;;15.25;;
11422;SDS011;5768;51.476;7.210;2022-08-01T05:39:24;16.80;;;15.05;;
11422;SDS011;5768;51.476;7.210;2022-08-01T05:42:26;18.80;;;16.92;;
11422;SDS011;5768;51.476;7.210;2022-08-01T05:45:29;17.23;;;15.52;;
11422;SDS011;5768;51.476;7.210;2022-08-01T05:48:31;17.17;;;15.43;;
11422;SDS011;5768;51.476;7.210;2022-08-01T05:51:35;17.30;;;15.45;;
11422;SDS011;5768;51.476;7.210;2022-08-01T05:54:37;17.58;;;15.77;;
11422;SDS011;5768;51.476;7.210;2022-08-01T05:57:39;17.75;;;15.82;;
11422;SDS011;5768;51.476;7.210;2022-08-01T06:00:41;17.80;;;15.98;;
11422;SDS011;5768;51.476;7.210;2022-08-01T06:03:46;20.55;;;17.50;;
11422;SDS011;5768;51.476;7.210;2022-08-01T06:06:51;20.48;;;18.35;;
11422;SDS011;5768;51.476;7.210;2022-08-01T06:09:54;19.90;;;17.80;;
11422;SDS011;5768;51.476;7.210;2022-08-01T06:12:56;19.90;;;17.67;;
11422;SDS011;5768;51.476;7.210;2022-08-01T06:16:03;21.65;;;19.08;;
11422;SDS011;5768;51.476;7.210;2022-08-01T06:19:06;16.33;;;14.35;;
11422;SDS011;5768;51.476;7.210;2022-08-01T06:22:10;17.58;;;15.80;;
11422;SDS011;5768;51.476;7.210;2022-08-01T06:25:12;19.20;;;15.77;;
11422;SDS011;5768;51.476;7.210;2022-08-01T06:28:14;17.90;;;16.10;;
11422;SDS011;5768;51.476;7.210;2022-08-01T06:31:17;15.73;;;14.07;;
11422;SDS011;5768;51.476;7.210;2022-08-01T06:34:19;16.08;;;14.48;;
11422;SDS011;5768;51.476;7.210;2022-08-01T06:37:23;15.00;;;13.40;;
11422;SDS011;5768;51.476;7.210;2022-08-01T06:40:29;15.90;;;14.30;;
11422;SDS011;5768;51.476;7.210;2022-08-01T06:43:32;17.50;;;15.68;;
11422;SDS011;5768;51.476;7.210;2022-08-01T06:46:35;13.65;;;12.27;;
11422;SDS011;5768;51.476;7.210;2022-08-01T06:49:38;13.13;;;11.77;;
11422;SDS011;5768;51.476;7.210;2022-08-01T06:52:42;13.75;;;12.27;;
11422;SDS011;5768;51.476;7.210;2022-08-01T06:55:44;12.75;;;11.55;;
11422;SDS011;5768;51.476;7.210;2022-08-01T06:58:46;13.95;;;12.52;;
11422;SDS011;5768;51.476;7.210;2022-08-01T07:01:50;13.18;;;11.88;;
11422;SDS011;5768;51.476;7.210;2022-08-01T07:04:53;11.82;;;10.70;;
11422;SDS011;5768;51.476;7.210;2022-08-01T07:07:59;13.20;;;10.85;;
11422;SDS011;5768;51.476;7.210;2022-08-01T07:11:01;10.80;;;9.70;;
11422;SDS011;5768;51.476;7.210;2022-08-01T07:14:04;10.07;;;9.18;;
11422;SDS011;5768;51.476;7.210;2022-08-01T07:17:06;10.40;;;9.30;;
11422;SDS011;5768;51.476;7.210;2022-08-01T07:20:09;8.90;;;8.10;;
11422;SDS011;5768;51.476;7.210;2022-08-01T07:23:14;7.78;;;6.97;;
11422;SDS011;5768;51.476;7.210;2022-08-01T07:26:17;7.78;;;6.97;;
11422;SDS011;5768;51.476;7.210;2022-08-01T07:29:19;7.20;;;6.50;;
11422;SDS011;5768;51.476;7.210;2022-08-01T07:32:22;8.10;;;7.30;;
11422;SDS011;5768;51.476;7.210;2022-08-01T07:35:24;7.32;;;6.20;;
11422;SDS011;5768;51.476;7.210;2022-08-01T07:38:28;7.72;;;6.70;;
11422;SDS011;5768;51.476;7.210;2022-08-01T07:41:30;6.00;;;5.25;;
11422;SDS011;5768;51.476;7.210;2022-08-01T07:44:35;5.50;;;4.70;;
11422;SDS011;5768;51.476;7.210;2022-08-01T07:47:37;4.03;;;3.65;;
11422;SDS011;5768;51.476;7.210;2022-08-01T07:50:39;4.97;;;4.00;;
11422;SDS011;5768;51.476;7.210;2022-08-01T07:53:43;4.05;;;3.60;;
11422;SDS011;5768;51.476;7.210;2022-08-01T07:56:45;4.15;;;3.67;;
11422;SDS011;5768;51.476;7.210;2022-08-01T07:59:50;3.83;;;2.83;;
11422;SDS011;5768;51.476;7.210;2022-08-01T08:02:54;3.45;;;3.15;;
11422;SDS011;5768;51.476;7.210;2022-08-01T08:05:58;3.97;;;3.30;;
11422;SDS011;5768;51.476;7.210;2022-08-01T08:09:03;4.65;;;4.25;;
11422;SDS011;5768;51.476;7.210;2022-08-01T08:12:06;3.40;;;3.10;;
11422;SDS011;5768;51.476;7.210;2022-08-01T08:15:09;2.92;;;2.72;;
11422;SDS011;5768;51.476;7.210;2022-08-01T08:18:11;3.88;;;3.10;;
11422;SDS011;5768;51.476;7.210;2022-08-01T08:21:14;3.78;;;2.97;;
11422;SDS011;5768;51.476;7.210;2022-08-01T08:24:17;5.15;;;3.08;;
11422;SDS011;5768;51.476;7.210;2022-08-01T08:27:23;2.60;;;2.40;;
11422;SDS011;5768;51.476;7.210;2022-08-01T08:30:25;3.58;;;2.85;;
11422;SDS011;5768;51.476;7.210;2022-08-01T08:33:28;2.92;;;2.63;;
11422;SDS011;5768;51.476;7.210;2022-08-01T08:36:31;2.72;;;2.17;;
11422;SDS011;5768;51.476;7.210;2022-08-01T08:39:35;2.03;;;1.92;;
11422;SDS011;5768;51.476;7.210;2022-08-01T08:42:38;2.05;;;1.70;;
11422;SDS011;5768;51.476;7.210;2022-08-01T08:45:42;2.80;;;1.80;;
11422;SDS011;5768;51.476;7.210;2022-08-01T08:48:46;2.30;;;2.13;;
11422;SDS011;5768;51.476;7.210;2022-08-01T08:51:50;2.47;;;1.85;;
11422;SDS011;5768;51.476;7.210;2022-08-01T08:54:55;3.55;;;2.17;;
11422;SDS011;5768;51.476;7.210;2022-08-01T08:57:59;2.05;;;1.95;;
11422;SDS011;5768;51.476;7.210;2022-08-01T09:01:06;2.80;;;1.95;;
11422;SDS011;5768;51.476;7.210;2022-08-01T09:04:10;3.58;;;3.28;;
11422;SDS011;5768;51.476;7.210;2022-08-01T09:07:12;2.20;;;1.98;;
11422;SDS011;5768;51.476;7.210;2022-08-01T09:10:17;2.95;;;2.75;;
11422;SDS011;5768;51.476;7.210;2022-08-01T09:13:19;1.65;;;1.55;;
11422;SDS011;5768;51.476;7.210;2022-08-01T09:16:22;2.30;;;2.05;;
11422;SDS011;5768;51.476;7.210;2022-08-01T09:19:25;2.00;;;1.90;;
11422;SDS011;5768;51.476;7.210;2022-08-01T09:22:35;2.75;;;1.88;;
11422;SDS011;5768;51.476;7.210;2022-08-01T09:25:51;2.17;;;2.08;;
11422;SDS011;5768;51.476;7.210;2022-08-01T09:28:54;2.10;;;1.88;;
11422;SDS011;5768;51.476;7.210;2022-08-01T09:31:56;2.53;;;2.08;;
11422;SDS011;5768;51.476;7.210;2022-08-01T09:35:00;1.70;;;1.60;;
11422;SDS011;5768;51.476;7.210;2022-08-01T09:38:26;2.95;;;1.80;;
11422;SDS011;5768;51.476;7.210;2022-08-01T09:41:31;2.20;;;2.00;;
11422;SDS011;5768;51.476;7.210;2022-08-01T09:44:37;1.83;;;1.73;;
11422;SDS011;5768;51.476;7.210;2022-08-01T09:47:41;1.77;;;1.67;;
11422;SDS011;5768;51.476;7.210;2022-08-01T09:50:45;1.70;;;1.60;;
11422;SDS011;5768;51.476;7.210;2022-08-01T09:53:50;2.00;;;1.90;;
11422;SDS011;5768;51.476;7.210;2022-08-01T09:56:53;2.05;;;1.70;;
11422;SDS011;5768;51.476;7.210;2022-08-01T10:00:16;1.40;;;1.30;;
11422;SDS011;5768;51.476;7.210;2022-08-01T10:03:20;1.15;;;1.15;;
11422;SDS011;5768;51.476;7.210;2022-08-01T10:06:24;1.42;;;1.33;;
11422;SDS011;5768;51.476;7.210;2022-08-01T10:09:27;1.83;;;1.73;;
11422;SDS011;5768;51.476;7.210;2022-08-01T10:12:32;1.50;;;1.40;;
11422;SDS011;5768;51.476;7.210;2022-08-01T10:15:34;3.83;;;1.88;;
11422;SDS011;5768;51.476;7.210;2022-08-01T10:18:37;1.75;;;1.60;;
11422;SDS011;5768;51.476;7.210;2022-08-01T10:21:43;6.60;;;1.83;;
11422;SDS011;5768;51.476;7.210;2022-08-01T10:24:50;1.92;;;1.83;;
11422;SDS011;5768;51.476;7.210;2022-08-01T10:27:58;3.03;;;1.85;;
11422;SDS011;5768;51.476;7.210;2022-08-01T10:31:07;2.70;;;2.50;;
11422;SDS011;5768;51.476;7.210;2022-08-01T10:34:10;1.52;;;1.42;;
11422;SDS011;5768;51.476;7.210;2022-08-01T10:37:15;1.98;;;1.77;;
11422;SDS011;5768;51.476;7.210;2022-08-01T10:40:18;5.00;;;1.80;;
11422;SDS011;5768;51.476;7.210;2022-08-01T10:43:22;1.50;;;1.40;;
11422;SDS011;5768;51.476;7.210;2022-08-01T10:46:25;2.03;;;1.70;;
11422;SDS011;5768;51.476;7.210;2022-08-01T10:49:32;1.52;;;1.42;;
11422;SDS011;5768;51.476;7.210;2022-08-01T10:52:40;2.10;;;1.60;;
11422;SDS011;5768;51.476;7.210;2022-08-01T10:55:49;3.10;;;2.67;;
11422;SDS011;5768;51.476;7.210;2022-08-01T10:59:02;2.83;;;1.30;;
11422;SDS011;5768;51.476;7.210;2022-08-01T11:02:05;2.42;;;2.20;;
11422;SDS011;5768;51.476;7.210;2022-08-01T11:05:09;1.48;;;1.38;;
11422;SDS011;5768;51.476;7.210;2022-08-01T11:08:21;3.33;;;1.73;;
11422;SDS011;5768;51.476;7.210;2022-08-01T11:11:25;2.53;;;2.13;;
11422;SDS011;5768;51.476;7.210;2022-08-01T11:14:29;1.40;;;1.20;;
11422;SDS011;5768;51.476;7.210;2022-08-01T11:17:32;4.32;;;3.92;;
11422;SDS011;5768;51.476;7.210;2022-08-01T11:20:35;1.50;;;1.35;;
11422;SDS011;5768;51.476;7.210;2022-08-01T11:23:46;1.42;;;1.33;;
11422;SDS011;5768;51.476;7.210;2022-08-01T11:30:29;1.13;;;0.90;;
11422;SDS011;5768;51.476;7.210;2022-08-01T11:33:47;2.53;;;2.33;;
11422;SDS011;5768;51.476;7.210;2022-08-01T11:36:50;2.72;;;1.10;;
11422;SDS011;5768;51.476;7.210;2022-08-01T11:40:25;1.50;;;1.38;;
11422;SDS011;5768;51.476;7.210;2022-08-01T11:43:29;1.15;;;1.05;;
11422;SDS011;5768;51.476;7.210;2022-08-01T11:46:49;1.60;;;0.95;;
11422;SDS011;5768;51.476;7.210;2022-08-01T11:49:56;1.70;;;0.82;;
11422;SDS011;5768;51.476;7.210;2022-08-01T11:52:59;0.90;;;0.85;;
11422;SDS011;5768;51.476;7.210;2022-08-01T11:56:03;0.85;;;0.85;;
11422;SDS011;5768;51.476;7.210;2022-08-01T11:59:06;1.30;;;0.70;;
11422;SDS011;5768;51.476;7.210;2022-08-01T12:02:17;1.23;;;0.80;;
11422;SDS011;5768;51.476;7.210;2022-08-01T12:05:20;0.60;;;0.60;;
11422;SDS011;5768;51.476;7.210;2022-08-01T12:08:26;1.27;;;0.93;;
11422;SDS011;5768;51.476;7.210;2022-08-01T12:11:29;0.75;;;0.60;;
11422;SDS011;5768;51.476;7.210;2022-08-01T12:14:32;0.80;;;0.80;;
11422;SDS011;5768;51.476;7.210;2022-08-01T12:17:37;1.15;;;0.80;;
11422;SDS011;5768;51.476;7.210;2022-08-01T12:20:41;1.27;;;0.90;;
11422;SDS011;5768;51.476;7.210;2022-08-01T12:23:45;0.68;;;0.68;;
11422;SDS011;5768;51.476;7.210;2022-08-01T12:27:00;0.60;;;0.60;;
11422;SDS011;5768;51.476;7.210;2022-08-01T12:30:05;1.20;;;1.10;;
11422;SDS011;5768;51.476;7.210;2022-08-01T12:33:10;0.95;;;0.90;;
11422;SDS011;5768;51.476;7.210;2022-08-01T12:36:26;0.80;;;0.80;;
11422;SDS011;5768;51.476;7.210;2022-08-01T12:39:31;0.65;;;0.60;;
11422;SDS011;5768;51.476;7.210;2022-08-01T12:42:35;0.90;;;0.90;;
11422;SDS011;5768;51.476;7.210;2022-08-01T12:45:39;1.02;;;0.90;;
11422;SDS011;5768;51.476;7.210;2022-08-01T12:48:44;0.95;;;0.90;;
11422;SDS011;5768;51.476;7.210;2022-08-01T12:51:47;0.70;;;0.70;;
11422;SDS011;5768;51.476;7.210;2022-08-01T12:55:09;0.90;;;0.82;;
11422;SDS011;5768;51.476;7.210;2022-08-01T12:58:14;1.42;;;0.77;;
11422;SDS011;5768;51.476;7.210;2022-08-01T13:01:24;1.08;;;1.00;;
11422;SDS011;5768;51.476;7.210;2022-08-01T13:04:29;0.80;;;0.80;;
11422;SDS011;5768;51.476;7.210;2022-08-01T13:07:38;3.03;;;1.20;;
11422;SDS011;5768;51.476;7.210;2022-08-01T13:10:43;0.65;;;0.65;;
11422;SDS011;5768;51.476;7.210;2022-08-01T13:13:46;1.42;;;0.95;;
11422;SDS011;5768;51.476;7.210;2022-08-01T13:16:50;1.55;;;1.00;;
11422;SDS011;5768;51.476;7.210;2022-08-01T13:19:54;0.85;;;0.68;;
11422;SDS011;5768;51.476;7.210;2022-08-01T13:23:12;0.80;;;0.80;;
11422;SDS011;5768;51.476;7.210;2022-08-01T13:26:16;1.63;;;0.90;;
11422;SDS011;5768;51.476;7.210;2022-08-01T13:29:19;0.90;;;0.90;;
11422;SDS011;5768;51.476;7.210;2022-08-01T13:32:23;1.92;;;1.10;;
11422;SDS011;5768;51.476;7.210;2022-08-01T13:35:27;2.55;;;1.27;;
11422;SDS011;5768;51.476;7.210;2022-08-01T13:38:29;2.92;;;2.17;;
11422;SDS011;5768;51.476;7.210;2022-08-01T13:41:50;2.50;;;1.10;;
11422;SDS011;5768;51.476;7.210;2022-08-01T13:44:53;1.80;;;1.10;;
11422;SDS011;5768;51.476;7.210;2022-08-01T13:47:55;1.10;;;1.02;;
11422;SDS011;5768;51.476;7.210;2022-08-01T13:50:59;1.20;;;1.10;;
11422;SDS011;5768;51.476;7.210;2022-08-01T13:54:02;1.70;;;1.27;;
11422;SDS011;5768;51.476;7.210;2022-08-01T13:57:05;2.08;;;1.10;;
11422;SDS011;5768;51.476;7.210;2022-08-01T14:00:08;1.25;;;1.15;;
11422;SDS011;5768;51.476;7.210;2022-08-01T14:03:12;2.88;;;1.10;;
11422;SDS011;5768;51.476;7.210;2022-08-01T14:06:18;1.17;;;1.17;;
11422;SDS011;5768;51.476;7.210;2022-08-01T14:09:22;0.98;;;0.90;;
11422;SDS011;5768;51.476;7.210;2022-08-01T14:12:25;1.40;;;1.00;;
11422;SDS011;5768;51.476;7.210;2022-08-01T14:15:27;1.20;;;1.10;;
11422;SDS011;5768;51.476;7.210;2022-08-01T14:18:29;2.15;;;1.10;;
11422;SDS011;5768;51.476;7.210;2022-08-01T14:21:33;1.20;;;1.10;;
11422;SDS011;5768;51.476;7.210;2022-08-01T14:24:35;1.23;;;1.10;;
11422;SDS011;5768;51.476;7.210;2022-08-01T14:27:37;1.02;;;1.02;;
11422;SDS011;5768;51.476;7.210;2022-08-01T14:30:41;1.33;;;1.02;;
11422;SDS011;5768;51.476;7.210;2022-08-01T14:33:45;1.42;;;1.17;;
11422;SDS011;5768;51.476;7.210;2022-08-01T14:36:49;1.08;;;1.05;;
11422;SDS011;5768;51.476;7.210;2022-08-01T14:39:53;1.23;;;1.17;;
11422;SDS011;5768;51.476;7.210;2022-08-01T14:42:58;1.45;;;1.30;;
11422;SDS011;5768;51.476;7.210;2022-08-01T14:46:01;1.33;;;1.20;;
11422;SDS011;5768;51.476;7.210;2022-08-01T14:49:04;1.75;;;1.17;;
11422;SDS011;5768;51.476;7.210;2022-08-01T14:52:08;1.48;;;1.15;;
11422;SDS011;5768;51.476;7.210;2022-08-01T14:55:11;1.38;;;1.13;;
11422;SDS011;5768;51.476;7.210;2022-08-01T14:58:14;1.15;;;1.10;;
11422;SDS011;5768;51.476;7.210;2022-08-01T15:01:16;1.67;;;1.27;;
11422;SDS011;5768;51.476;7.210;2022-08-01T15:04:18;1.27;;;1.10;;
11422;SDS011;5768;51.476;7.210;2022-08-01T15:07:22;1.27;;;1.17;;
11422;SDS011;5768;51.476;7.210;2022-08-01T15:10:24;3.10;;;1.50;;
11422;SDS011;5768;51.476;7.210;2022-08-01T15:13:26;2.92;;;2.15;;
11422;SDS011;5768;51.476;7.210;2022-08-01T15:16:29;2.55;;;1.52;;
11422;SDS011;5768;51.476;7.210;2022-08-01T15:19:31;2.10;;;1.45;;
11422;SDS011;5768;51.476;7.210;2022-08-01T15:22:34;3.05;;;1.60;;
11422;SDS011;5768;51.476;7.210;2022-08-01T15:25:37;2.90;;;1.52;;
11422;SDS011;5768;51.476;7.210;2022-08-01T15:28:39;2.30;;;1.42;;
11422;SDS011;5768;51.476;7.210;2022-08-01T15:31:41;1.80;;;1.50;;
11422;SDS011;5768;51.476;7.210;2022-08-01T15:34:43;1.70;;;1.38;;
11422;SDS011;5768;51.476;7.210;2022-08-01T15:37:47;2.28;;;1.60;;
11422;SDS011;5768;51.476;7.210;2022-08-01T15:40:49;1.50;;;1.40;;
11422;SDS011;5768;51.476;7.210;2022-08-01T15:43:52;2.15;;;1.70;;
11422;SDS011;5768;51.476;7.210;2022-08-01T15:46:54;1.60;;;1.40;;
11422;SDS011;5768;51.476;7.210;2022-08-01T15:49:56;1.85;;;1.50;;
11422;SDS011;5768;51.476;7.210;2022-08-01T15:53:02;2.28;;;1.70;;
11422;SDS011;5768;51.476;7.210;2022-08-01T15:56:05;4.00;;;1.75;;
11422;SDS011;5768;51.476;7.210;2022-08-01T15:59:08;2.80;;;1.90;;
11422;SDS011;5768;51.476;7.210;2022-08-01T16:02:10;2.47;;;1.75;;
11422;SDS011;5768;51.476;7.210;2022-08-01T16:05:13;2.17;;;1.92;;
11422;SDS011;5768;51.476;7.210;2022-08-01T16:08:17;2.95;;;2.00;;
11422;SDS011;5768;51.476;7.210;2022-08-01T16:11:19;3.17;;;1.58;;
11422;SDS011;5768;51.476;7.210;2022-08-01T16:14:23;1.60;;;1.35;;
11422;SDS011;5768;51.476;7.210;2022-08-01T16:17:25;2.42;;;1.73;;
11422;SDS011;5768;51.476;7.210;2022-08-01T16:20:27;2.53;;;1.83;;
11422;SDS011;5768;51.476;7.210;2022-08-01T16:23:31;3.38;;;1.90;;
11422;SDS011;5768;51.476;7.210;2022-08-01T16:26:34;2.33;;;1.70;;
11422;SDS011;5768;51.476;7.210;2022-08-01T16:29:36;1.90;;;1.60;;
11422;SDS011;5768;51.476;7.210;2022-08-01T16:32:39;2.38;;;1.70;;
11422;SDS011;5768;51.476;7.210;2022-08-01T16:35:41;3.55;;;2.13;;
11422;SDS011;5768;51.476;7.210;2022-08-01T16:38:45;2.15;;;1.60;;
11422;SDS011;5768;51.476;7.210;2022-08-01T16:41:47;2.25;;;1.60;;
11422;SDS011;5768;51.476;7.210;2022-08-01T16:44:50;3.95;;;2.15;;
11422;SDS011;5768;51.476;7.210;2022-08-01T16:47:52;2.53;;;1.73;;
11422;SDS011;5768;51.476;7.210;2022-08-01T16:50:55;2.75;;;1.95;;
11422;SDS011;5768;51.476;7.210;2022-08-01T16:53:59;3.70;;;1.80;;
11422;SDS011;5768;51.476;7.210;2022-08-01T16:57:01;2.90;;;1.85;;
11422;SDS011;5768;51.476;7.210;2022-08-01T17:00:04;4.35;;;1.50;;
11422;SDS011;5768;51.476;7.210;2022-08-01T17:03:09;3.08;;;1.90;;
11422;SDS011;5768;51.476;7.210;2022-08-01T17:06:12;2.97;;;1.48;;
11422;SDS011;5768;51.476;7.210;2022-08-01T17:09:15;3.08;;;1.60;;
11422;SDS011;5768;51.476;7.210;2022-08-01T17:12:17;3.22;;;1.70;;
11422;SDS011;5768;51.476;7.210;2022-08-01T17:15:20;2.28;;;1.80;;
11422;SDS011;5768;51.476;7.210;2022-08-01T17:18:22;3.38;;;1.90;;
11422;SDS011;5768;51.476;7.210;2022-08-01T17:21:25;4.43;;;1.67;;
11422;SDS011;5768;51.476;7.210;2022-08-01T17:24:28;2.47;;;1.73;;
11422;SDS011;5768;51.476;7.210;2022-08-01T17:27:31;3.53;;;2.72;;
11422;SDS011;5768;51.476;7.210;2022-08-01T17:30:33;2.58;;;1.70;;
11422;SDS011;5768;51.476;7.210;2022-08-01T17:33:38;2.85;;;1.77;;
11422;SDS011;5768;51.476;7.210;2022-08-01T17:36:40;4.07;;;2.80;;
11422;SDS011;5768;51.476;7.210;2022-08-01T17:39:44;2.72;;;2.47;;
11422;SDS011;5768;51.476;7.210;2022-08-01T17:42:46;4.35;;;2.20;;
11422;SDS011;5768;51.476;7.210;2022-08-01T17:45:48;3.42;;;1.77;;
11422;SDS011;5768;51.476;7.210;2022-08-01T17:48:52;2.58;;;1.90;;
11422;SDS011;5768;51.476;7.210;2022-08-01T17:51:54;2.22;;;1.60;;
11422;SDS011;5768;51.476;7.210;2022-08-01T17:55:00;3.10;;;1.92;;
11422;SDS011;5768;51.476;7.210;2022-08-01T17:58:03;2.97;;;1.73;;
11422;SDS011;5768;51.476;7.210;2022-08-01T18:01:05;2.47;;;2.03;;
11422;SDS011;5768;51.476;7.210;2022-08-01T18:04:09;2.42;;;1.75;;
11422;SDS011;5768;51.476;7.210;2022-08-01T18:07:12;1.95;;;1.63;;
11422;SDS011;5768;51.476;7.210;2022-08-01T18:10:15;3.40;;;2.03;;
11422;SDS011;5768;51.476;7.210;2022-08-01T18:13:18;2.55;;;1.75;;
11422;SDS011;5768;51.476;7.210;2022-08-01T18:16:20;3.25;;;1.90;;
11422;SDS011;5768;51.476;7.210;2022-08-01T18:19:22;3.85;;;2.03;;
11422;SDS011;5768;51.476;7.210;2022-08-01T18:22:25;3.03;;;2.00;;
11422;SDS011;5768;51.476;7.210;2022-08-01T18:25:28;2.58;;;1.90;;
11422;SDS011;5768;51.476;7.210;2022-08-01T18:28:30;2.90;;;1.80;;
11422;SDS011;5768;51.476;7.210;2022-08-01T18:31:37;5.35;;;2.20;;
11422;SDS011;5768;51.476;7.210;2022-08-01T18:34:40;3.47;;;1.90;;
11422;SDS011;5768;51.476;7.210;2022-08-01T18:37:42;2.38;;;1.70;;